Time;durP1;ratioP1;P1;durP2;ratioP2;P2;SDS_P1;SDS_P2;PMS_P1;PMS_P2;Temp;Humidity;BMP_temperature;BMP_pressure;BME280_temperature;BME280_humidity;BME280_pressure;Samples;Min_cycle;Max_cycle;Signal;HPM_P1;HPM_P2
2021/12/05 00:19:38;;;;;;;1.20;1.20;;;16.90;66.50;;;;;;5019543;28;44007;-68
2021/12/05 00:22:13;;;;;;;1.40;1.40;;;16.90;66.70;;;;;;5011696;28;44045;-67
2021/12/05 00:24:44;;;;;;;1.20;1.20;;;17.00;66.40;;;;;;5013915;28;43965;-67
2021/12/05 00:27:16;;;;;;;1.13;1.13;;;17.00;66.10;;;;;;5019260;28;43986;-68
2021/12/05 00:29:52;;;;;;;1.83;1.73;;;17.00;66.00;;;;;;5019391;28;44057;-68
2021/12/05 00:32:28;;;;;;;1.50;1.30;;;17.00;66.00;;;;;;5007970;28;47098;-67
2021/12/05 00:43:40;;;;;;;1.40;1.40;;;16.90;66.40;;;;;;5017364;28;44032;-67
2021/12/05 00:46:26;;;;;;;1.20;1.20;;;16.90;66.50;;;;;;5014039;28;44096;-68
2021/12/05 00:49:27;;;;;;;1.20;1.20;;;16.90;66.60;;;;;;5017726;28;43434;-67
2021/12/05 00:55:21;;;;;;;1.20;1.20;;;16.80;66.60;;;;;;4961157;28;46012;-68
2021/12/05 01:00:53;;;;;;;1.33;1.33;;;16.80;66.90;;;;;;4997303;28;44031;-69
2021/12/05 01:06:58;;;;;;;1.10;1.10;;;17.00;66.40;;;;;;4979794;28;44263;-68
2021/12/05 01:09:35;;;;;;;1.30;1.30;;;17.10;65.90;;;;;;5016449;28;44119;-68
2021/12/05 01:15:04;;;;;;;1.00;1.00;;;17.20;65.40;;;;;;4993335;28;44159;-67
2021/12/05 01:17:54;;;;;;;1.00;1.00;;;17.10;65.50;;;;;;5003598;28;45047;-68
2021/12/05 01:20:24;;;;;;;1.00;1.00;;;17.10;65.80;;;;;;5012849;28;43475;-68
2021/12/05 01:23:00;;;;;;;1.10;1.10;;;17.00;65.90;;;;;;5036407;28;43452;-68
2021/12/05 01:25:40;;;;;;;1.00;1.00;;;17.00;66.10;;;;;;5004705;28;44067;-68
2021/12/05 01:28:15;;;;;;;1.07;1.07;;;17.00;66.20;;;;;;5005872;28;45746;-69
2021/12/05 01:30:50;;;;;;;1.23;1.10;;;16.90;66.30;;;;;;5035885;28;43987;-68
2021/12/05 01:33:25;;;;;;;1.10;1.10;;;16.90;66.40;;;;;;5006710;28;44065;-67
2021/12/05 01:36:06;;;;;;;1.10;1.10;;;16.90;66.50;;;;;;5005197;28;43958;-68
2021/12/05 01:39:01;;;;;;;1.20;1.20;;;16.80;66.60;;;;;;5008290;28;43882;-67
2021/12/05 01:44:58;;;;;;;1.00;1.00;;;16.90;66.40;;;;;;4997865;28;43574;-68
2021/12/05 01:47:50;;;;;;;1.00;1.00;;;17.00;66.10;;;;;;5006067;28;44054;-68
2021/12/05 01:50:57;;;;;;;0.97;0.90;;;17.00;66.00;;;;;;5036702;28;45984;-67
2021/12/05 01:56:46;;;;;;;1.00;1.00;;;17.00;66.30;;;;;;4962637;28;44071;-69
2021/12/05 02:16:05;;;;;;;0.90;0.90;;;16.80;66.60;;;;;;5012845;28;44302;-69
2021/12/05 02:30:01;;;;;;;0.90;0.90;;;17.20;65.60;;;;;;5007346;28;44014;-68
2021/12/05 02:35:27;;;;;;;0.80;0.80;;;17.20;65.40;;;;;;5004333;28;46953;-68
2021/12/05 02:38:31;;;;;;;1.00;1.00;;;17.10;65.60;;;;;;5026365;28;44069;-68
2021/12/05 02:41:12;;;;;;;1.10;1.10;;;17.10;65.90;;;;;;5032850;28;44105;-67
2021/12/05 02:43:43;;;;;;;0.83;0.83;;;17.00;66.00;;;;;;5017531;28;43991;-69
2021/12/05 02:46:14;;;;;;;1.00;1.00;;;17.00;66.10;;;;;;5036842;28;46945;-68
2021/12/05 02:48:43;;;;;;;0.90;0.90;;;16.90;66.20;;;;;;5023162;28;43508;-68
2021/12/05 02:51:13;;;;;;;0.90;0.90;;;16.90;66.40;;;;;;5007197;28;43524;-68
2021/12/05 02:53:47;;;;;;;0.80;0.80;;;16.90;66.50;;;;;;5040157;28;44008;-69
2021/12/05 02:56:15;;;;;;;0.83;0.83;;;16.90;66.60;;;;;;5027097;28;43975;-68
2021/12/05 02:58:47;;;;;;;0.80;0.80;;;16.80;66.60;;;;;;5022721;28;43934;-67
2021/12/05 03:01:20;;;;;;;0.80;0.80;;;16.90;66.70;;;;;;5036023;28;44069;-67
2021/12/05 03:03:49;;;;;;;0.83;0.83;;;17.00;66.40;;;;;;5026215;28;44140;-68
2021/12/05 03:06:21;;;;;;;1.10;1.10;;;17.00;66.10;;;;;;5024736;28;44091;-67
2021/12/05 03:08:51;;;;;;;0.70;0.70;;;17.00;66.10;;;;;;5023814;28;44059;-68
2021/12/05 03:11:20;;;;;;;0.83;0.83;;;17.00;66.20;;;;;;5037942;28;43950;-68
2021/12/05 03:13:48;;;;;;;0.83;0.83;;;16.90;66.20;;;;;;5028950;28;44163;-68
2021/12/05 03:16:20;;;;;;;0.93;0.93;;;16.90;66.30;;;;;;5009195;28;45004;-69
2021/12/05 03:18:48;;;;;;;0.90;0.90;;;16.90;67.20;;;;;;5010928;28;44712;-69
2021/12/05 03:21:17;;;;;;;0.83;0.83;;;16.80;66.40;;;;;;5008085;28;43992;-68
2021/12/05 03:23:46;;;;;;;0.80;0.80;;;16.80;66.60;;;;;;5031941;28;44144;-67
2021/12/05 03:26:18;;;;;;;1.00;1.00;;;16.80;66.60;;;;;;5010724;28;44914;-68
2021/12/05 03:28:49;;;;;;;1.00;1.00;;;16.80;67.30;;;;;;5017458;28;44700;-68
2021/12/05 03:31:19;;;;;;;0.97;0.97;;;16.80;66.70;;;;;;5009582;28;43959;-68
2021/12/05 03:33:51;;;;;;;0.70;0.70;;;16.80;66.70;;;;;;5039160;28;44159;-68
2021/12/05 03:36:19;;;;;;;0.70;0.70;;;16.80;66.80;;;;;;5013551;28;45776;-68
2021/12/05 03:38:48;;;;;;;0.70;0.70;;;16.80;66.80;;;;;;5010631;28;44946;-68
2021/12/05 03:41:18;;;;;;;0.77;0.77;;;16.90;66.70;;;;;;5033156;28;43411;-68
2021/12/05 03:43:47;;;;;;;1.00;1.00;;;17.00;66.40;;;;;;5016027;28;43597;-67
2021/12/05 03:46:15;;;;;;;0.70;0.70;;;17.10;66.00;;;;;;5033892;28;43839;-68
2021/12/05 03:48:45;;;;;;;0.80;0.80;;;17.10;65.50;;;;;;5037142;28;43428;-68
2021/12/05 03:51:17;;;;;;;0.70;0.70;;;17.20;65.40;;;;;;5041732;28;44038;-68
2021/12/05 03:53:48;;;;;;;0.90;0.90;;;17.10;65.50;;;;;;5036490;28;43495;-68
2021/12/05 03:56:19;;;;;;;0.53;0.53;;;17.10;65.80;;;;;;5006324;28;44030;-68
2021/12/05 03:58:49;;;;;;;0.90;0.90;;;17.00;65.80;;;;;;5039936;28;44068;-69
2021/12/05 04:01:17;;;;;;;0.70;0.70;;;17.00;66.00;;;;;;5026071;28;44029;-68
2021/12/05 04:03:47;;;;;;;0.73;0.73;;;17.00;66.10;;;;;;5002542;28;43963;-68
2021/12/05 04:06:18;;;;;;;0.80;0.80;;;16.90;66.30;;;;;;5010718;28;43996;-68
2021/12/05 04:08:47;;;;;;;0.80;0.80;;;16.90;66.40;;;;;;5034775;28;45107;-68
2021/12/05 04:11:18;;;;;;;0.80;0.80;;;16.80;66.40;;;;;;5012768;28;43997;-68
2021/12/05 04:13:47;;;;;;;0.80;0.80;;;16.80;66.50;;;;;;5035999;28;44357;-68
2021/12/05 04:16:16;;;;;;;0.67;0.67;;;16.80;66.50;;;;;;5035454;28;44948;-69
2021/12/05 04:18:45;;;;;;;0.60;0.60;;;16.80;66.70;;;;;;5003327;28;46019;-68
2021/12/05 04:21:14;;;;;;;0.80;0.80;;;16.90;66.60;;;;;;5013512;28;44022;-69
2021/12/05 04:23:42;;;;;;;0.70;0.70;;;16.90;66.20;;;;;;5004464;28;43558;-68
2021/12/05 04:26:10;;;;;;;0.80;0.80;;;17.00;66.10;;;;;;5011183;28;46726;-68
2021/12/05 04:28:39;;;;;;;0.80;0.80;;;17.00;66.10;;;;;;5010438;28;44186;-68
2021/12/05 04:31:09;;;;;;;0.70;0.70;;;16.90;66.20;;;;;;5009885;28;44005;-68
2021/12/05 04:33:38;;;;;;;0.70;0.70;;;16.90;66.20;;;;;;5002559;28;44035;-69
2021/12/05 04:36:07;;;;;;;0.80;0.80;;;16.90;66.40;;;;;;5008905;28;46272;-69
2021/12/05 04:38:35;;;;;;;0.60;0.60;;;16.80;66.40;;;;;;5015555;28;44119;-68
2021/12/05 04:41:03;;;;;;;0.70;0.70;;;16.80;66.60;;;;;;5007609;28;43473;-67
2021/12/05 04:43:37;;;;;;;0.70;0.70;;;16.80;66.60;;;;;;5005697;28;44235;-69
2021/12/05 04:46:06;;;;;;;0.80;0.80;;;16.80;66.70;;;;;;5007769;28;44022;-68
2021/12/05 04:48:36;;;;;;;0.60;0.60;;;16.70;66.70;;;;;;5004014;28;43902;-68
2021/12/05 04:51:06;;;;;;;0.80;0.80;;;16.70;66.70;;;;;;5002695;28;44008;-69
2021/12/05 04:53:34;;;;;;;0.80;0.80;;;16.70;66.70;;;;;;5005232;28;44002;-67
2021/12/05 04:56:02;;;;;;;0.63;0.63;;;16.70;66.80;;;;;;5017782;28;45727;-68
2021/12/05 04:58:30;;;;;;;0.60;0.60;;;16.70;66.70;;;;;;5017304;28;43404;-68
2021/12/05 05:00:59;;;;;;;0.60;0.60;;;16.80;66.60;;;;;;5038193;28;44018;-67
2021/12/05 05:03:27;;;;;;;0.77;0.77;;;17.00;66.40;;;;;;5021328;28;43428;-68
2021/12/05 05:05:58;;;;;;;0.70;0.70;;;17.10;66.00;;;;;;5041262;28;43628;-68
2021/12/05 05:08:29;;;;;;;0.70;0.70;;;17.10;65.60;;;;;;5040670;28;44014;-67
2021/12/05 05:10:58;;;;;;;0.70;0.70;;;17.10;65.30;;;;;;5032937;28;43944;-67
2021/12/05 05:13:26;;;;;;;0.80;0.80;;;17.10;65.50;;;;;;5032699;28;44625;-68
2021/12/05 05:15:55;;;;;;;0.60;0.60;;;17.10;65.70;;;;;;5030715;28;44135;-69
2021/12/05 05:18:26;;;;;;;0.80;0.80;;;17.00;65.70;;;;;;5034743;28;44117;-67
2021/12/05 05:21:04;;;;;;;0.90;0.90;;;17.00;66.00;;;;;;5031515;28;44101;-67
2021/12/05 05:23:47;;;;;;;0.67;0.67;;;17.00;66.10;;;;;;5032624;28;44042;-68
2021/12/05 05:26:48;;;;;;;0.70;0.70;;;16.90;66.20;;;;;;5036998;28;44078;-68
2021/12/05 05:29:39;;;;;;;0.50;0.50;;;16.90;66.40;;;;;;5035434;28;43533;-68
2021/12/05 05:40:42;;;;;;;0.80;0.80;;;16.90;66.40;;;;;;5029886;28;43950;-68
2021/12/05 05:43:20;;;;;;;0.80;0.80;;;17.00;66.10;;;;;;5030535;28;43970;-68
2021/12/05 05:46:05;;;;;;;0.60;0.60;;;17.00;66.00;;;;;;5032315;28;44109;-69
2021/12/05 05:48:39;;;;;;;0.60;0.60;;;17.00;66.00;;;;;;5035847;28;44222;-69
2021/12/05 05:51:08;;;;;;;0.70;0.70;;;17.00;66.10;;;;;;5031307;28;44204;-68
2021/12/05 05:53:37;;;;;;;0.60;0.60;;;16.90;66.10;;;;;;5029924;28;44082;-68
2021/12/05 05:56:09;;;;;;;0.67;0.67;;;16.90;66.30;;;;;;5036074;28;44042;-68
2021/12/05 05:58:42;;;;;;;0.77;0.77;;;16.90;66.40;;;;;;5039881;28;44801;-68
2021/12/05 06:01:19;;;;;;;0.60;0.60;;;16.80;66.40;;;;;;5039976;28;44037;-68
2021/12/05 06:03:47;;;;;;;0.90;0.90;;;16.80;67.20;;;;;;5033418;28;43970;-68
2021/12/05 06:06:16;;;;;;;0.90;0.90;;;16.80;66.60;;;;;;5031564;28;43501;-69
2021/12/05 06:08:46;;;;;;;0.60;0.60;;;16.80;66.70;;;;;;5034127;28;44091;-68
2021/12/05 06:11:15;;;;;;;0.60;0.60;;;16.80;66.70;;;;;;5016707;28;45205;-68
2021/12/05 06:13:43;;;;;;;0.60;0.60;;;16.80;66.80;;;;;;5040529;28;44090;-68
2021/12/05 06:16:12;;;;;;;0.63;0.63;;;16.70;66.80;;;;;;5033370;28;44113;-68
2021/12/05 06:18:40;;;;;;;0.70;0.70;;;16.80;66.70;;;;;;5034934;28;44658;-68
2021/12/05 06:21:08;;;;;;;0.60;0.60;;;16.90;66.50;;;;;;5031902;28;43503;-68
2021/12/05 06:23:36;;;;;;;0.80;0.80;;;17.00;66.10;;;;;;5025771;28;43994;-67
2021/12/05 06:26:07;;;;;;;0.60;0.60;;;17.10;65.70;;;;;;5027404;28;43867;-67
2021/12/05 06:28:38;;;;;;;0.70;0.70;;;17.10;65.50;;;;;;5035230;28;44403;-68
2021/12/05 06:31:18;;;;;;;0.70;0.70;;;17.10;65.60;;;;;;5027646;28;44352;-69
2021/12/05 06:36:59;;;;;;;0.70;0.70;;;17.00;66.00;;;;;;5029099;28;44053;-68
2021/12/05 06:39:40;;;;;;;0.70;0.70;;;16.90;66.10;;;;;;5032858;28;44045;-69
2021/12/05 06:42:32;;;;;;;0.83;0.83;;;16.90;66.30;;;;;;5032388;28;44077;-68
2021/12/05 06:47:45;;;;;;;0.63;0.63;;;16.80;66.50;;;;;;5031546;28;44116;-69
2021/12/05 06:50:13;;;;;;;0.60;0.60;;;16.80;66.60;;;;;;5028960;28;45106;-68
2021/12/05 06:52:42;;;;;;;0.40;0.40;;;16.80;66.60;;;;;;5030582;28;43963;-69
2021/12/05 06:55:10;;;;;;;0.70;0.70;;;16.80;66.70;;;;;;5039417;28;43982;-67
2021/12/05 06:57:40;;;;;;;0.63;0.63;;;16.80;66.70;;;;;;5031298;28;44021;-68
2021/12/05 07:00:10;;;;;;;0.80;0.80;;;16.90;66.40;;;;;;5031153;28;44871;-68
2021/12/05 07:02:38;;;;;;;0.53;0.53;;;16.90;66.10;;;;;;5033197;28;44057;-67
2021/12/05 07:07:52;;;;;;;0.60;0.60;;;16.90;66.10;;;;;;5031039;28;44031;-68
2021/12/05 07:10:21;;;;;;;0.70;0.70;;;16.90;66.10;;;;;;5025118;28;44465;-68
2021/12/05 07:13:32;;;;;;;0.53;0.53;;;16.90;66.20;;;;;;5028558;28;44023;-68
2021/12/05 07:16:00;;;;;;;0.60;0.60;;;16.90;66.40;;;;;;5025198;28;43947;-69
2021/12/05 07:21:16;;;;;;;0.60;0.60;;;16.80;66.40;;;;;;5024858;28;44023;-68
2021/12/05 07:23:53;;;;;;;0.57;0.57;;;16.80;66.50;;;;;;5023658;28;44461;-68
2021/12/05 07:26:32;;;;;;;0.60;0.60;;;16.80;66.60;;;;;;5031442;28;44035;-67
2021/12/05 07:40:24;;;;;;;0.60;0.60;;;16.90;66.50;;;;;;5024921;28;44070;-68
2021/12/05 07:42:52;;;;;;;0.50;0.50;;;17.00;66.10;;;;;;5021586;28;43611;-68
2021/12/05 07:45:28;;;;;;;0.40;0.40;;;17.10;65.70;;;;;;5029757;28;44070;-68
2021/12/05 07:47:57;;;;;;;0.50;0.50;;;17.10;65.50;;;;;;5019923;28;44097;-68
2021/12/05 07:50:37;;;;;;;0.40;0.40;;;17.10;65.60;;;;;;5031896;28;43998;-68
2021/12/05 07:53:10;;;;;;;0.63;0.63;;;17.00;65.70;;;;;;5024991;28;43978;-68
2021/12/05 07:55:43;;;;;;;0.57;0.57;;;17.00;66.00;;;;;;5027800;28;43998;-68
2021/12/05 07:58:26;;;;;;;0.50;0.50;;;16.90;66.10;;;;;;5030427;28;44084;-68
2021/12/05 08:01:03;;;;;;;0.50;0.50;;;16.90;66.20;;;;;;5028365;28;43983;-68
2021/12/05 08:14:43;;;;;;;0.43;0.43;;;16.70;66.70;;;;;;5030085;28;44027;-69
2021/12/05 08:17:16;;;;;;;0.57;0.57;;;16.80;66.80;;;;;;5026414;28;44105;-67
2021/12/05 08:19:44;;;;;;;0.50;0.50;;;16.90;66.50;;;;;;5026094;28;44107;-68
2021/12/05 08:22:12;;;;;;;0.60;0.60;;;16.90;66.20;;;;;;5023171;28;44313;-67
2021/12/05 08:24:42;;;;;;;0.60;0.60;;;16.90;66.10;;;;;;5007218;28;46048;-68
2021/12/05 08:27:13;;;;;;;0.60;0.60;;;16.90;66.20;;;;;;5020959;28;44009;-67
2021/12/05 08:29:45;;;;;;;0.50;0.50;;;16.90;66.30;;;;;;5022142;28;43724;-68
2021/12/05 08:32:28;;;;;;;0.60;0.60;;;16.90;66.40;;;;;;5022389;28;43960;-68
2021/12/05 08:35:10;;;;;;;0.60;0.60;;;16.80;66.40;;;;;;5022491;28;44025;-69
2021/12/05 08:43:44;;;;;;;0.60;0.60;;;16.80;66.80;;;;;;5033917;28;44290;-68
2021/12/05 09:26:05;;;;;;;9.03;5.90;;;16.90;66.40;;;;;;5025664;28;44006;-68
2021/12/05 09:29:10;;;;;;;43.03;25.53;;;16.80;66.30;;;;;;5025194;28;43956;-68
2021/12/05 09:51:30;;;;;;;9.27;8.13;;;16.90;66.20;;;;;;5024038;28;44083;-68
2021/12/05 10:11:02;;;;;;;9.10;7.80;;;16.70;66.80;;;;;;5028775;28;44101;-68
2021/12/05 10:13:39;;;;;;;7.80;7.00;;;16.70;67.40;;;;;;5033774;28;43940;-68
2021/12/05 10:16:22;;;;;;;8.77;7.00;;;16.70;66.90;;;;;;5035103;28;44055;-68
2021/12/05 10:38:40;;;;;;;9.57;7.93;;;17.00;65.90;;;;;;5036471;28;44855;-67
2021/12/05 10:41:22;;;;;;;9.30;8.30;;;17.00;66.10;;;;;;5030496;28;43927;-68
2021/12/05 10:43:52;;;;;;;10.10;8.57;;;16.90;66.20;;;;;;5031004;28;44031;-67
2021/12/05 10:46:22;;;;;;;10.43;7.90;;;16.90;67.10;;;;;;5036066;28;44022;-67
2021/12/05 10:48:52;;;;;;;8.97;8.07;;;16.90;66.40;;;;;;5032823;28;44036;-68
2021/12/05 10:51:23;;;;;;;9.13;7.90;;;16.90;66.50;;;;;;5025422;28;44020;-68
2021/12/05 10:53:53;;;;;;;9.73;8.30;;;16.80;66.50;;;;;;5026311;28;44126;-68
2021/12/05 10:56:22;;;;;;;9.37;7.33;;;16.90;66.70;;;;;;5028704;28;44263;-68
2021/12/05 10:58:56;;;;;;;8.93;7.43;;;16.90;67.20;;;;;;5040667;28;44962;-67
2021/12/05 11:01:34;;;;;;;9.20;8.03;;;17.00;66.10;;;;;;5033408;28;44070;-68
2021/12/05 11:04:04;;;;;;;9.23;8.33;;;17.00;66.10;;;;;;5025226;28;43959;-69
2021/12/05 11:06:50;;;;;;;9.40;8.37;;;17.00;66.10;;;;;;5035615;28;44192;-67
2021/12/05 11:09:21;;;;;;;9.33;7.67;;;17.00;66.30;;;;;;5030450;28;44758;-67
2021/12/05 11:11:51;;;;;;;9.43;8.40;;;16.90;66.30;;;;;;5033492;28;43406;-68
2021/12/05 11:14:21;;;;;;;9.03;7.93;;;16.90;66.40;;;;;;5031719;28;43947;-68
2021/12/05 11:16:56;;;;;;;9.13;7.90;;;16.90;66.50;;;;;;5030024;28;43368;-67
2021/12/05 11:19:27;;;;;;;9.30;7.60;;;16.80;66.50;;;;;;5014228;28;44001;-67
2021/12/05 11:21:57;;;;;;;8.93;8.03;;;16.80;66.60;;;;;;5029699;28;44140;-68
2021/12/05 11:24:30;;;;;;;8.70;7.60;;;16.80;66.70;;;;;;5025221;28;43677;-68
2021/12/05 11:27:17;;;;;;;8.93;8.03;;;16.80;66.70;;;;;;5030714;28;43436;-68
2021/12/05 11:29:48;;;;;;;8.53;7.63;;;16.80;66.80;;;;;;5026165;28;44272;-68
2021/12/05 11:32:18;;;;;;;9.20;7.80;;;16.80;66.90;;;;;;5031127;28;44053;-68
2021/12/05 11:34:47;;;;;;;9.33;7.60;;;16.80;67.10;;;;;;5031662;28;44073;-68
2021/12/05 11:37:14;;;;;;;8.33;7.23;;;16.90;66.90;;;;;;5028041;28;44212;-67
2021/12/05 11:39:42;;;;;;;8.20;7.37;;;17.00;66.60;;;;;;5029747;28;43958;-68
2021/12/05 11:42:17;;;;;;;10.00;7.40;;;17.10;66.90;;;;;;5031332;28;43974;-67
2021/12/05 11:44:48;;;;;;;9.20;7.67;;;17.20;65.80;;;;;;5037101;28;43416;-67
2021/12/05 11:47:20;;;;;;;8.27;7.33;;;17.20;65.30;;;;;;5033120;28;43907;-68
2021/12/05 11:49:48;;;;;;;13.20;7.43;;;17.20;65.00;;;;;;5030581;28;44075;-67
2021/12/05 11:52:22;;;;;;;8.27;6.90;;;17.10;65.30;;;;;;5023884;28;44010;-69
2021/12/05 11:54:51;;;;;;;7.57;6.77;;;17.10;65.60;;;;;;5028731;28;44153;-68
2021/12/05 11:57:20;;;;;;;7.50;6.60;;;17.00;65.80;;;;;;5030270;28;44038;-69
2021/12/05 11:59:49;;;;;;;7.70;6.90;;;17.00;66.00;;;;;;5030442;28;44873;-68
2021/12/05 12:02:20;;;;;;;7.60;6.57;;;16.90;66.10;;;;;;5023171;28;43998;-68
2021/12/05 12:04:52;;;;;;;7.43;6.70;;;16.90;66.30;;;;;;5026493;28;43667;-68
2021/12/05 12:07:24;;;;;;;10.00;6.63;;;16.90;66.40;;;;;;5023369;28;44050;-68
2021/12/05 12:09:53;;;;;;;9.03;6.17;;;16.80;66.50;;;;;;5023448;28;44404;-69
2021/12/05 12:12:23;;;;;;;11.87;6.40;;;16.80;66.60;;;;;;5028058;28;44020;-68
2021/12/05 12:14:51;;;;;;;7.13;6.00;;;16.80;66.70;;;;;;5034716;28;44068;-67
2021/12/05 12:17:20;;;;;;;7.40;6.13;;;16.90;66.50;;;;;;5024041;28;44073;-68
2021/12/05 12:19:50;;;;;;;10.27;5.93;;;17.00;66.20;;;;;;5021829;28;44109;-68
2021/12/05 12:22:20;;;;;;;5.60;5.10;;;17.00;66.10;;;;;;5021909;28;43996;-69
2021/12/05 12:24:50;;;;;;;6.40;5.80;;;17.00;66.20;;;;;;5023744;28;43968;-67
2021/12/05 12:27:20;;;;;;;6.67;5.97;;;17.00;66.30;;;;;;5024956;28;43992;-68
2021/12/05 12:29:48;;;;;;;8.90;5.93;;;16.90;66.40;;;;;;5026407;28;43950;-67
2021/12/05 12:32:22;;;;;;;5.97;5.43;;;16.90;66.50;;;;;;5030281;28;44041;-68
2021/12/05 12:34:57;;;;;;;6.73;5.47;;;16.90;66.60;;;;;;5030672;28;43878;-68
2021/12/05 12:37:25;;;;;;;7.70;5.37;;;16.80;66.60;;;;;;5026136;28;44038;-67
2021/12/05 12:39:53;;;;;;;6.10;5.53;;;16.80;66.70;;;;;;5028413;28;44042;-68
2021/12/05 12:42:23;;;;;;;5.90;5.07;;;16.80;66.80;;;;;;5026076;28;44059;-68
2021/12/05 12:45:14;;;;;;;5.27;4.80;;;16.80;66.90;;;;;;5027535;28;44092;-68
2021/12/05 12:47:44;;;;;;;5.93;5.27;;;16.80;67.00;;;;;;5025783;28;43896;-68
2021/12/05 12:50:34;;;;;;;7.50;5.07;;;16.80;67.00;;;;;;5026376;28;44731;-68
2021/12/05 12:53:11;;;;;;;4.93;4.50;;;16.80;67.30;;;;;;5030917;28;44021;-67
2021/12/05 12:55:41;;;;;;;4.97;4.57;;;16.90;67.20;;;;;;5026953;28;44027;-67
2021/12/05 12:58:10;;;;;;;4.50;4.20;;;17.00;66.90;;;;;;5034395;28;44014;-67
2021/12/05 13:00:41;;;;;;;5.40;4.70;;;17.10;66.50;;;;;;5029849;28;44022;-68
2021/12/05 13:03:38;;;;;;;4.93;4.47;;;17.20;66.10;;;;;;5025211;28;44088;-68
2021/12/05 13:11:48;;;;;;;5.30;4.80;;;17.10;66.20;;;;;;5029886;28;44712;-69
2021/12/05 13:14:16;;;;;;;4.63;4.23;;;17.00;66.50;;;;;;5030120;28;44030;-68
2021/12/05 13:16:48;;;;;;;4.20;3.90;;;17.00;66.70;;;;;;5024827;28;44105;-67
2021/12/05 13:19:19;;;;;;;4.53;4.00;;;17.00;66.80;;;;;;5037189;28;43636;-68
2021/12/05 13:21:52;;;;;;;4.80;4.43;;;16.90;67.00;;;;;;5028358;28;44097;-68
2021/12/05 13:24:25;;;;;;;4.63;4.10;;;16.90;67.10;;;;;;5028679;28;44100;-67
2021/12/05 13:26:56;;;;;;;4.17;3.97;;;16.90;67.10;;;;;;5028556;28;44082;-67
2021/12/05 13:29:25;;;;;;;5.30;3.80;;;16.90;67.20;;;;;;5027598;28;44002;-68
2021/12/05 13:31:56;;;;;;;5.67;4.33;;;16.80;67.40;;;;;;5026957;28;44069;-68
2021/12/05 13:34:52;;;;;;;5.13;4.10;;;16.80;67.50;;;;;;5027819;28;44328;-68
2021/12/05 13:37:34;;;;;;;4.30;4.03;;;16.90;67.10;;;;;;5001158;28;44170;-68
2021/12/05 13:40:14;;;;;;;4.77;4.20;;;17.00;66.90;;;;;;5033267;28;43422;-68
2021/12/05 13:42:46;;;;;;;3.90;3.60;;;17.00;66.90;;;;;;5007853;28;45831;-68
2021/12/05 13:45:21;;;;;;;4.40;4.00;;;17.00;67.00;;;;;;5024649;28;44102;-67
2021/12/05 13:48:21;;;;;;;3.70;3.40;;;16.90;67.00;;;;;;5025040;28;43440;-68
2021/12/05 13:50:55;;;;;;;3.70;3.40;;;16.90;67.30;;;;;;5028763;28;44088;-68
2021/12/05 13:53:46;;;;;;;3.90;3.60;;;16.80;67.30;;;;;;5027847;28;44157;-68
2021/12/05 13:56:20;;;;;;;3.90;3.63;;;16.80;67.50;;;;;;5019305;28;44750;-68
2021/12/05 13:58:49;;;;;;;3.50;3.30;;;16.80;67.50;;;;;;5026321;28;43386;-68
2021/12/05 14:01:22;;;;;;;3.80;3.50;;;16.80;67.60;;;;;;5028817;28;44019;-68
2021/12/05 14:04:01;;;;;;;3.67;3.47;;;16.80;67.60;;;;;;5031122;28;44676;-68
2021/12/05 14:06:44;;;;;;;3.83;3.53;;;16.80;67.70;;;;;;5026124;28;44074;-68
2021/12/05 14:09:15;;;;;;;3.30;3.20;;;16.80;67.80;;;;;;5023384;28;43441;-69
2021/12/05 14:11:46;;;;;;;3.70;3.40;;;16.80;67.90;;;;;;5029542;28;43932;-67
2021/12/05 14:14:14;;;;;;;3.57;3.37;;;16.90;67.90;;;;;;5033888;28;44041;-68
2021/12/05 14:16:43;;;;;;;4.07;3.63;;;17.00;67.50;;;;;;5023599;28;44017;-68
2021/12/05 14:19:12;;;;;;;3.97;3.67;;;17.10;67.10;;;;;;5023137;28;44164;-67
2021/12/05 14:21:43;;;;;;;3.67;3.40;;;17.20;66.70;;;;;;5025923;28;43406;-68
2021/12/05 14:24:11;;;;;;;3.33;3.23;;;17.20;66.50;;;;;;5029394;28;44065;-68
2021/12/05 14:26:40;;;;;;;3.43;3.23;;;17.20;66.40;;;;;;5026865;28;43458;-68
2021/12/05 14:29:11;;;;;;;3.07;2.97;;;17.20;66.60;;;;;;5033356;28;44065;-68
2021/12/05 14:31:40;;;;;;;3.40;3.20;;;17.10;66.70;;;;;;5034032;28;44002;-68
2021/12/05 14:34:10;;;;;;;3.10;3.00;;;17.10;66.90;;;;;;5039156;28;45699;-68
2021/12/05 14:36:42;;;;;;;3.13;3.00;;;17.00;67.00;;;;;;5012822;28;44046;-68
2021/12/05 14:39:20;;;;;;;3.20;3.00;;;17.00;67.10;;;;;;5021914;28;44068;-67
2021/12/05 14:41:49;;;;;;;3.47;3.23;;;17.00;67.30;;;;;;5028523;28;44090;-68
2021/12/05 14:44:18;;;;;;;3.10;2.90;;;16.90;67.30;;;;;;5034892;28;43959;-67
2021/12/05 14:46:47;;;;;;;2.97;2.87;;;16.90;67.40;;;;;;5025688;28;43923;-68
2021/12/05 14:49:16;;;;;;;3.20;3.00;;;16.90;67.50;;;;;;5023291;28;44064;-68
2021/12/05 14:51:45;;;;;;;3.43;3.13;;;16.90;67.70;;;;;;5030478;28;43452;-68
2021/12/05 14:54:18;;;;;;;2.90;2.80;;;17.00;67.40;;;;;;5024375;28;44025;-68
2021/12/05 14:56:46;;;;;;;3.40;3.20;;;17.10;67.10;;;;;;5025703;28;44193;-68
2021/12/05 14:59:15;;;;;;;2.60;2.50;;;17.00;66.80;;;;;;5027052;28;43539;-67
2021/12/05 15:01:47;;;;;;;3.00;2.90;;;17.00;66.90;;;;;;5022246;28;44045;-68
2021/12/05 15:04:19;;;;;;;3.33;3.13;;;17.00;67.00;;;;;;5028820;28;44562;-68
2021/12/05 15:06:49;;;;;;;2.80;2.70;;;17.00;67.10;;;;;;5030866;28;44013;-68
2021/12/05 15:09:20;;;;;;;2.73;2.63;;;16.90;67.10;;;;;;5027621;28;44199;-68
2021/12/05 15:11:53;;;;;;;2.50;2.40;;;16.90;67.30;;;;;;5023089;28;44057;-68
2021/12/05 15:14:22;;;;;;;2.43;2.33;;;16.90;67.40;;;;;;5029327;28;44027;-68
2021/12/05 15:17:01;;;;;;;3.00;2.90;;;16.90;67.40;;;;;;5022737;28;43433;-68
2021/12/05 15:19:29;;;;;;;2.80;2.70;;;16.80;67.40;;;;;;5025472;28;43947;-68
2021/12/05 15:21:59;;;;;;;2.87;2.77;;;16.80;67.40;;;;;;5008646;28;44377;-67
2021/12/05 15:24:28;;;;;;;2.70;2.60;;;16.80;68.20;;;;;;5026905;28;44356;-67
2021/12/05 15:26:59;;;;;;;2.67;2.57;;;16.80;67.50;;;;;;5025203;28;44047;-68
2021/12/05 15:29:28;;;;;;;2.83;2.73;;;16.80;67.70;;;;;;5035222;28;43531;-68
2021/12/05 15:32:18;;;;;;;2.83;2.73;;;16.90;67.60;;;;;;5027270;28;44025;-68
2021/12/05 15:34:50;;;;;;;2.50;2.40;;;17.00;67.20;;;;;;5028226;28;44139;-67
2021/12/05 15:37:20;;;;;;;2.70;2.60;;;17.10;66.80;;;;;;5021225;28;44034;-68
2021/12/05 15:39:50;;;;;;;2.63;2.53;;;17.20;66.40;;;;;;5008414;28;44022;-68
2021/12/05 15:42:22;;;;;;;2.63;2.53;;;17.20;66.30;;;;;;5025994;28;43483;-67
2021/12/05 15:44:52;;;;;;;2.40;2.30;;;17.20;66.40;;;;;;5027310;28;44073;-68
2021/12/05 15:47:21;;;;;;;2.40;2.30;;;17.10;66.60;;;;;;5025916;28;44056;-68
2021/12/05 15:50:01;;;;;;;2.20;2.10;;;17.00;66.60;;;;;;5026214;28;44077;-68
2021/12/05 15:52:34;;;;;;;2.80;2.60;;;17.00;66.80;;;;;;5027880;28;44068;-67
2021/12/05 15:55:02;;;;;;;2.33;2.23;;;17.00;67.00;;;;;;5025192;28;44010;-68
2021/12/05 15:57:32;;;;;;;2.60;2.50;;;17.00;67.10;;;;;;5025868;28;43464;-68
2021/12/05 16:00:05;;;;;;;1.93;1.93;;;16.90;67.10;;;;;;5022352;28;44274;-68
2021/12/05 16:02:33;;;;;;;2.37;2.30;;;16.90;67.20;;;;;;5023597;28;44074;-67
2021/12/05 16:05:02;;;;;;;2.20;2.20;;;16.90;67.30;;;;;;5021669;28;44049;-68
2021/12/05 16:07:32;;;;;;;2.47;2.43;;;16.90;67.40;;;;;;5035476;28;43473;-70
2021/12/05 16:10:15;;;;;;;2.43;2.33;;;16.90;67.40;;;;;;5030762;28;43388;-67
2021/12/05 16:12:44;;;;;;;2.40;2.30;;;16.90;67.20;;;;;;5024371;28;44102;-67
2021/12/05 16:15:13;;;;;;;2.80;2.70;;;17.00;66.90;;;;;;5027317;28;44117;-68
2021/12/05 16:17:41;;;;;;;2.20;2.20;;;17.20;66.60;;;;;;5025955;28;43935;-68
2021/12/05 16:20:22;;;;;;;2.50;2.40;;;17.30;66.20;;;;;;5028410;28;43934;-68
2021/12/05 16:23:19;;;;;;;2.10;2.00;;;17.50;65.80;;;;;;5023553;28;44042;-67
2021/12/05 16:26:00;;;;;;;2.43;2.33;;;17.60;65.30;;;;;;5024720;28;43932;-68
2021/12/05 16:28:30;;;;;;;2.30;2.20;;;17.80;64.80;;;;;;5023609;28;44026;-68
2021/12/05 16:31:03;;;;;;;2.33;2.23;;;17.90;65.10;;;;;;5030282;28;43948;-68
2021/12/05 16:33:31;;;;;;;2.07;2.07;;;18.00;64.20;;;;;;5026416;28;44130;-69
2021/12/05 16:35:59;;;;;;;2.20;2.10;;;18.00;64.00;;;;;;5026941;28;44173;-68
2021/12/05 16:38:35;;;;;;;1.83;1.83;;;17.90;63.90;;;;;;5024412;28;43969;-68
2021/12/05 16:41:16;;;;;;;2.27;2.27;;;17.80;64.20;;;;;;5028231;28;44067;-69
2021/12/05 16:44:06;;;;;;;2.27;2.20;;;17.70;64.60;;;;;;5023075;28;43504;-68
2021/12/05 16:46:36;;;;;;;2.07;1.97;;;17.50;64.90;;;;;;5033937;28;44084;-67
2021/12/05 16:49:10;;;;;;;1.97;1.87;;;17.50;65.40;;;;;;5027354;28;44111;-68
2021/12/05 16:51:44;;;;;;;2.23;2.13;;;17.40;65.60;;;;;;5033798;28;43943;-67
2021/12/05 16:54:18;;;;;;;1.87;1.87;;;17.30;65.80;;;;;;5033011;28;43966;-67
2021/12/05 16:56:50;;;;;;;2.43;2.33;;;17.20;66.10;;;;;;5015652;28;45967;-68
2021/12/05 16:59:25;;;;;;;2.50;2.40;;;17.20;66.50;;;;;;5028340;28;44309;-67
2021/12/05 17:02:14;;;;;;;2.10;2.10;;;17.20;66.40;;;;;;5027381;28;44017;-68
2021/12/05 17:04:49;;;;;;;2.10;2.10;;;17.30;66.00;;;;;;5029998;28;44126;-69